Time;durP1;ratioP1;P1;durP2;ratioP2;P2;SDS_P1;SDS_P2;PMS_P1;PMS_P2;Temp;Humidity;BMP_temperature;BMP_pressure;BME280_temperature;BME280_humidity;BME280_pressure;Samples;Min_cycle;Max_cycle;Signal;HPM_P1;HPM_P2
2022/01/10 00:00:25;;;;;;;27.67;8.25;;;3.10;99.90;;;;;;4998923;28;20451;-81
2022/01/10 00:02:55;;;;;;;30.77;9.02;;;3.10;99.90;;;;;;5015452;28;20506;-81
2022/01/10 00:05:21;;;;;;;22.92;7.47;;;3.00;99.90;;;;;;5015009;28;20068;-81
2022/01/10 00:07:47;;;;;;;31.67;9.45;;;3.00;99.90;;;;;;4999192;28;20045;-81
2022/01/10 00:10:13;;;;;;;25.77;8.50;;;3.00;99.90;;;;;;5014827;28;20566;-81
2022/01/10 00:12:40;;;;;;;24.95;8.50;;;3.10;99.90;;;;;;5017168;28;20091;-81
2022/01/10 00:15:07;;;;;;;28.15;8.88;;;3.00;99.90;;;;;;5018928;28;20088;-81
2022/01/10 00:17:36;;;;;;;35.40;9.57;;;3.00;99.90;;;;;;5019034;28;20041;-81
2022/01/10 00:20:03;;;;;;;31.05;9.60;;;3.00;99.90;;;;;;5019021;28;20493;-81
2022/01/10 00:22:29;;;;;;;28.10;8.63;;;2.90;99.90;;;;;;5019044;28;20040;-81
2022/01/10 00:24:55;;;;;;;21.17;8.20;;;2.80;99.90;;;;;;5018567;28;20124;-81
2022/01/10 00:27:20;;;;;;;24.02;8.60;;;2.80;99.90;;;;;;4985570;28;20485;-81
2022/01/10 00:29:46;;;;;;;33.17;10.07;;;3.60;99.90;;;;;;4986026;28;20041;-81
2022/01/10 00:32:12;;;;;;;30.05;9.05;;;3.40;99.90;;;;;;5018346;28;20463;-81
2022/01/10 00:34:37;;;;;;;26.25;8.80;;;2.70;99.90;;;;;;5002621;28;20059;-81
2022/01/10 00:37:03;;;;;;;23.48;8.68;;;2.70;99.90;;;;;;5018337;28;20099;-81
2022/01/10 00:39:29;;;;;;;24.75;8.70;;;2.70;99.90;;;;;;4985688;28;20111;-81
2022/01/10 00:41:58;;;;;;;21.45;8.57;;;2.60;99.90;;;;;;5001147;28;20098;-82
2022/01/10 00:44:26;;;;;;;24.10;8.75;;;2.60;99.90;;;;;;5018507;28;20124;-82
2022/01/10 00:46:53;;;;;;;28.40;8.57;;;3.50;99.90;;;;;;4998283;28;20046;-82
2022/01/10 00:49:19;;;;;;;24.52;8.40;;;2.60;99.90;;;;;;4966386;28;20049;-82
2022/01/10 00:51:44;;;;;;;22.13;8.32;;;2.60;99.90;;;;;;4998578;28;20095;-81
2022/01/10 00:54:10;;;;;;;22.27;8.48;;;2.60;99.90;;;;;;4950339;28;20049;-81
2022/01/10 00:56:36;;;;;;;31.40;10.27;;;2.50;99.90;;;;;;4997547;28;20105;-81
2022/01/10 00:59:02;;;;;;;31.45;10.00;;;2.50;99.90;;;;;;4966231;28;20413;-81
2022/01/10 01:01:28;;;;;;;30.52;10.63;;;2.40;99.90;;;;;;5015077;28;20057;-81
2022/01/10 01:03:53;;;;;;;27.10;9.73;;;2.40;99.90;;;;;;4982136;28;20041;-81
2022/01/10 01:06:19;;;;;;;23.20;8.88;;;2.30;99.90;;;;;;4982065;28;20052;-81
2022/01/10 01:08:46;;;;;;;20.65;9.00;;;2.30;99.90;;;;;;4998406;28;20085;-81
2022/01/10 01:11:41;;;;;;;25.52;9.45;;;2.30;99.90;;;;;;4949506;28;20497;-81
2022/01/10 01:14:07;;;;;;;27.52;8.95;;;2.30;99.90;;;;;;5014501;28;20391;-81
2022/01/10 01:24:16;;;;;;;25.90;10.05;;;2.20;99.90;;;;;;5017250;28;20502;-81
2022/01/10 01:26:47;;;;;;;29.77;10.68;;;2.20;99.90;;;;;;5000340;28;20041;-81
2022/01/10 01:29:17;;;;;;;28.48;10.43;;;2.20;99.90;;;;;;5017846;28;20048;-81
2022/01/10 01:31:43;;;;;;;28.00;11.35;;;2.20;99.90;;;;;;5017368;28;20045;-81
2022/01/10 01:34:10;;;;;;;29.42;10.68;;;2.20;99.90;;;;;;5017489;28;20088;-81
2022/01/10 01:36:37;;;;;;;26.27;11.18;;;2.20;99.90;;;;;;5001227;28;20549;-81
2022/01/10 01:39:16;;;;;;;32.92;11.02;;;2.20;99.90;;;;;;5017350;28;20089;-81
2022/01/10 01:41:42;;;;;;;28.90;10.82;;;2.20;99.90;;;;;;5016700;28;20050;-81
2022/01/10 01:44:08;;;;;;;28.83;10.23;;;2.20;99.90;;;;;;5001095;28;20476;-81
2022/01/10 01:46:36;;;;;;;30.10;10.82;;;2.30;99.90;;;;;;5017162;28;20037;-81
2022/01/10 01:49:03;;;;;;;27.27;11.25;;;2.20;99.90;;;;;;5017466;28;20509;-81
2022/01/10 01:51:29;;;;;;;27.63;11.07;;;2.20;99.90;;;;;;5017320;28;20477;-81
2022/01/10 01:53:55;;;;;;;30.65;11.77;;;2.20;99.90;;;;;;5017030;28;20111;-81
2022/01/10 01:56:22;;;;;;;30.55;11.48;;;2.20;99.90;;;;;;5016417;28;20037;-81
2022/01/10 01:58:51;;;;;;;28.50;11.63;;;2.10;99.90;;;;;;5013681;28;20033;-81
2022/01/10 02:01:18;;;;;;;30.30;10.85;;;2.10;99.90;;;;;;4981151;28;20034;-81
2022/01/10 02:03:45;;;;;;;34.35;11.57;;;2.10;99.90;;;;;;4981407;28;20505;-81
2022/01/10 02:06:11;;;;;;;29.23;12.00;;;2.00;99.90;;;;;;4997344;28;20072;-81
2022/01/10 02:08:38;;;;;;;32.22;11.98;;;2.00;99.90;;;;;;4985721;28;20050;-81
2022/01/10 02:11:07;;;;;;;42.10;13.30;;;2.00;99.90;;;;;;4980055;28;20037;-81
2022/01/10 02:13:33;;;;;;;40.47;12.45;;;2.00;99.90;;;;;;4996926;28;20050;-81
2022/01/10 02:16:02;;;;;;;32.90;12.27;;;2.00;99.90;;;;;;5013521;28;20482;-81
2022/01/10 02:18:28;;;;;;;28.85;12.00;;;1.90;99.90;;;;;;4980884;28;20080;-81
2022/01/10 02:20:57;;;;;;;34.47;12.65;;;1.90;99.90;;;;;;4980537;28;20088;-81
2022/01/10 02:23:23;;;;;;;36.05;13.30;;;1.90;99.90;;;;;;4981040;28;20046;-81
2022/01/10 02:25:49;;;;;;;34.92;12.93;;;1.90;99.90;;;;;;4995941;28;20084;-81
2022/01/10 02:28:15;;;;;;;39.65;14.63;;;1.80;99.90;;;;;;5013332;28;20037;-81
2022/01/10 02:30:41;;;;;;;39.20;14.50;;;1.80;99.90;;;;;;5012973;28;20092;-81
2022/01/10 02:33:07;;;;;;;34.85;13.60;;;1.80;99.90;;;;;;4996950;28;20512;-81
2022/01/10 02:35:42;;;;;;;31.95;13.52;;;2.30;99.90;;;;;;4980674;28;20073;-81
2022/01/10 02:38:08;;;;;;;45.67;16.38;;;1.70;99.90;;;;;;4980621;28;20076;-81
2022/01/10 02:40:34;;;;;;;33.30;14.38;;;2.20;99.90;;;;;;4979520;28;20082;-81
2022/01/10 02:43:01;;;;;;;39.28;15.40;;;1.70;99.90;;;;;;4980596;28;20049;-81
2022/01/10 02:45:26;;;;;;;38.00;15.75;;;1.70;99.90;;;;;;4980059;28;20099;-81
2022/01/10 02:47:54;;;;;;;52.50;17.45;;;2.30;99.90;;;;;;5010135;28;20124;-81
2022/01/10 02:50:20;;;;;;;39.92;15.65;;;1.60;99.90;;;;;;5015651;28;20131;-81
2022/01/10 02:52:47;;;;;;;42.47;15.15;;;1.70;99.90;;;;;;5016268;28;20045;-81
2022/01/10 02:55:14;;;;;;;33.60;15.02;;;1.90;99.90;;;;;;5015980;28;20493;-82
2022/01/10 02:57:41;;;;;;;39.90;16.65;;;1.90;99.90;;;;;;4983232;28;20038;-82
2022/01/10 03:00:15;;;;;;;30.65;15.00;;;1.70;99.90;;;;;;5015747;28;20045;-82
2022/01/10 03:02:43;;;;;;;38.08;16.08;;;1.70;99.90;;;;;;5016334;28;20044;-81
2022/01/10 03:05:09;;;;;;;44.15;16.00;;;1.70;99.90;;;;;;5015732;28;20049;-81
2022/01/10 03:07:35;;;;;;;36.08;15.43;;;1.70;99.90;;;;;;5015817;28;20112;-81
2022/01/10 03:10:02;;;;;;;40.85;16.92;;;1.70;99.90;;;;;;5032254;28;20041;-81
2022/01/10 03:12:30;;;;;;;38.53;16.67;;;1.70;99.90;;;;;;5015125;28;20513;-81
2022/01/10 03:14:58;;;;;;;43.42;16.02;;;1.70;99.90;;;;;;4999999;28;20505;-81
2022/01/10 03:17:24;;;;;;;34.83;15.43;;;1.60;99.90;;;;;;4999702;28;20559;-81
2022/01/10 03:19:50;;;;;;;36.05;15.10;;;2.00;99.90;;;;;;4999427;28;20069;-81
2022/01/10 03:22:16;;;;;;;43.58;17.15;;;1.60;99.90;;;;;;4999064;28;20033;-81
2022/01/10 03:24:42;;;;;;;31.90;15.60;;;1.60;99.90;;;;;;4999540;28;20119;-81
2022/01/10 03:27:07;;;;;;;34.55;15.82;;;1.50;99.90;;;;;;4998299;28;20026;-81
2022/01/10 03:29:33;;;;;;;37.65;15.98;;;1.80;99.90;;;;;;4999203;28;20126;-82
2022/01/10 03:32:01;;;;;;;35.80;16.05;;;1.50;99.90;;;;;;4998922;28;20038;-82
2022/01/10 03:34:28;;;;;;;33.40;16.50;;;1.50;99.90;;;;;;4999528;28;20049;-82
2022/01/10 03:36:53;;;;;;;33.75;15.70;;;1.50;99.90;;;;;;4982823;28;20044;-81
2022/01/10 03:39:19;;;;;;;35.80;16.55;;;1.50;99.90;;;;;;5015192;28;20057;-81
2022/01/10 03:41:45;;;;;;;33.70;17.02;;;1.50;99.90;;;;;;4998223;28;20051;-81
2022/01/10 03:44:11;;;;;;;32.83;17.05;;;1.50;99.90;;;;;;5015418;28;20564;-81
2022/01/10 03:46:37;;;;;;;30.55;16.08;;;1.50;99.90;;;;;;4998413;28;20487;-81
2022/01/10 03:49:04;;;;;;;38.50;16.77;;;1.50;99.90;;;;;;4999065;28;20111;-81
2022/01/10 03:51:30;;;;;;;38.67;16.83;;;1.40;99.90;;;;;;5015107;28;20041;-81
2022/01/10 03:53:56;;;;;;;35.50;17.77;;;1.40;99.90;;;;;;4998943;28;20095;-81
2022/01/10 03:56:23;;;;;;;32.95;16.33;;;1.40;99.90;;;;;;5014584;28;20037;-81
2022/01/10 03:58:49;;;;;;;40.13;18.83;;;1.40;99.90;;;;;;4995482;28;20070;-81
2022/01/10 04:01:15;;;;;;;35.60;16.45;;;1.40;99.90;;;;;;4979575;28;20034;-81
2022/01/10 04:03:41;;;;;;;46.15;18.83;;;1.70;99.90;;;;;;4995602;28;20129;-81
2022/01/10 04:06:08;;;;;;;42.00;18.45;;;1.50;99.90;;;;;;4995312;28;20513;-81
2022/01/10 04:08:34;;;;;;;36.88;16.67;;;2.40;99.90;;;;;;4979566;28;20042;-81
2022/01/10 04:11:01;;;;;;;41.10;18.38;;;1.40;99.90;;;;;;4994602;28;20126;-81
2022/01/10 04:13:27;;;;;;;39.83;17.25;;;1.30;99.90;;;;;;5011436;28;20120;-81
2022/01/10 04:15:53;;;;;;;32.33;16.70;;;1.30;99.90;;;;;;5014924;28;20091;-81
2022/01/10 04:18:20;;;;;;;42.42;18.08;;;1.30;99.90;;;;;;4998684;28;20041;-81
2022/01/10 04:20:47;;;;;;;38.17;18.00;;;1.30;99.90;;;;;;5014814;28;20128;-81
2022/01/10 04:23:14;;;;;;;38.88;18.00;;;1.60;99.90;;;;;;5015049;28;20037;-81
2022/01/10 04:25:40;;;;;;;36.53;18.52;;;1.30;99.90;;;;;;4981835;28;20127;-81
2022/01/10 04:28:06;;;;;;;42.42;19.20;;;2.00;99.90;;;;;;4998985;28;20447;-81
2022/01/10 04:30:32;;;;;;;40.92;19.95;;;1.30;99.90;;;;;;4982206;28;20132;-82
2022/01/10 04:33:00;;;;;;;35.22;18.20;;;1.20;99.90;;;;;;4998718;28;20033;-82
2022/01/10 04:35:27;;;;;;;36.60;18.13;;;1.20;99.90;;;;;;4982677;28;20069;-81
2022/01/10 04:37:53;;;;;;;40.88;17.95;;;1.20;99.90;;;;;;5014767;28;20038;-81
2022/01/10 04:40:19;;;;;;;37.85;19.33;;;1.20;99.90;;;;;;4997551;28;20049;-81
2022/01/10 04:42:45;;;;;;;38.20;18.33;;;1.90;99.90;;;;;;5014654;28;20046;-81
2022/01/10 04:45:11;;;;;;;39.78;19.30;;;1.20;99.90;;;;;;5014669;28;20100;-81
2022/01/10 04:47:37;;;;;;;41.55;20.33;;;1.20;99.90;;;;;;4998221;28;20052;-81
2022/01/10 04:50:27;;;;;;;40.72;20.60;;;1.20;99.90;;;;;;5014898;28;20124;-81
2022/01/10 04:52:52;;;;;;;37.65;18.63;;;1.20;99.90;;;;;;5001290;28;20516;-81
2022/01/10 04:55:19;;;;;;;38.88;19.13;;;1.20;99.90;;;;;;4997868;28;20044;-81
2022/01/10 04:57:45;;;;;;;41.67;20.17;;;1.80;99.90;;;;;;5014893;28;20120;-81
2022/01/10 05:00:13;;;;;;;49.20;21.08;;;1.10;99.90;;;;;;4985528;28;20069;-81
2022/01/10 05:02:41;;;;;;;40.90;21.60;;;1.10;99.90;;;;;;5018435;28;20389;-81
2022/01/10 05:05:07;;;;;;;45.38;21.48;;;1.20;99.90;;;;;;5001623;28;20045;-81
2022/01/10 05:07:33;;;;;;;48.13;21.20;;;1.10;99.90;;;;;;5017987;28;20049;-81
2022/01/10 05:09:59;;;;;;;51.40;22.15;;;1.10;99.90;;;;;;5001659;28;20037;-81
2022/01/10 05:12:27;;;;;;;46.38;21.80;;;1.10;99.90;;;;;;5000556;28;20041;-81
2022/01/10 05:14:53;;;;;;;43.40;20.38;;;1.00;99.90;;;;;;5002199;28;20519;-81
2022/01/10 05:17:21;;;;;;;58.28;25.27;;;1.00;99.90;;;;;;5017859;28;20401;-81
2022/01/10 05:19:47;;;;;;;45.53;21.25;;;1.00;99.90;;;;;;5034388;28;20509;-81
2022/01/10 05:22:13;;;;;;;42.72;20.80;;;1.00;99.90;;;;;;5001206;28;20041;-81
2022/01/10 05:24:38;;;;;;;42.58;21.05;;;1.00;99.90;;;;;;5001531;28;20042;-81
2022/01/10 05:27:04;;;;;;;42.63;21.65;;;1.00;99.90;;;;;;5016957;28;20037;-81
2022/01/10 05:29:30;;;;;;;42.25;21.00;;;0.90;99.90;;;;;;5001415;28;20051;-81
2022/01/10 05:31:56;;;;;;;43.08;21.92;;;0.90;99.90;;;;;;5014415;28;20404;-82
2022/01/10 05:34:22;;;;;;;50.58;24.50;;;0.90;99.90;;;;;;4984879;28;20045;-82
2022/01/10 05:36:48;;;;;;;50.08;23.83;;;1.00;99.90;;;;;;4985116;28;20389;-82
2022/01/10 05:39:14;;;;;;;61.75;26.13;;;0.90;99.90;;;;;;4984969;28;20061;-81
2022/01/10 05:41:40;;;;;;;52.30;23.27;;;0.90;99.90;;;;;;5000054;28;20033;-81
2022/01/10 05:44:06;;;;;;;58.63;26.08;;;1.80;99.90;;;;;;5017052;28;20464;-81
2022/01/10 05:46:34;;;;;;;46.55;24.23;;;0.80;99.90;;;;;;5000639;28;20052;-81
2022/01/10 05:49:02;;;;;;;42.03;22.02;;;0.90;99.90;;;;;;5000854;28;20080;-81
2022/01/10 05:51:33;;;;;;;45.20;23.27;;;0.80;99.90;;;;;;4998916;28;20493;-81
2022/01/10 05:53:59;;;;;;;48.47;24.45;;;1.00;99.90;;;;;;4997171;28;20033;-81
2022/01/10 05:56:25;;;;;;;44.20;23.55;;;0.90;99.90;;;;;;4997691;28;20169;-81
2022/01/10 05:58:51;;;;;;;59.08;26.58;;;0.80;99.90;;;;;;5014417;28;20092;-81
2022/01/10 06:01:16;;;;;;;42.17;22.92;;;1.60;99.90;;;;;;5000448;28;20037;-81
2022/01/10 06:03:42;;;;;;;44.08;25.15;;;1.10;99.90;;;;;;5012859;28;20387;-81
2022/01/10 06:06:08;;;;;;;61.25;28.15;;;0.80;99.90;;;;;;4965093;28;20041;-81
2022/01/10 06:08:34;;;;;;;51.30;27.20;;;0.80;99.90;;;;;;5011800;28;20036;-81
2022/01/10 06:11:00;;;;;;;68.47;32.72;;;0.80;99.90;;;;;;5014826;28;20091;-81
2022/01/10 06:13:26;;;;;;;52.47;28.02;;;1.30;99.90;;;;;;4981506;28;20131;-81
2022/01/10 06:15:51;;;;;;;47.15;26.73;;;0.70;99.90;;;;;;5011470;28;20080;-81
2022/01/10 06:18:18;;;;;;;50.72;26.30;;;0.80;99.90;;;;;;5013496;28;20496;-81
2022/01/10 06:20:43;;;;;;;44.67;25.15;;;0.80;99.90;;;;;;5023030;28;20040;-81
2022/01/10 06:23:11;;;;;;;52.17;27.23;;;0.80;99.90;;;;;;5013807;28;20049;-81
2022/01/10 06:25:38;;;;;;;47.70;25.58;;;0.80;99.90;;;;;;5012090;28;20045;-81
2022/01/10 06:28:05;;;;;;;52.15;29.30;;;0.70;99.90;;;;;;4997083;28;20041;-81
2022/01/10 06:30:30;;;;;;;47.97;26.00;;;0.70;99.90;;;;;;4996624;28;20107;-80
2022/01/10 06:32:56;;;;;;;56.88;29.70;;;0.90;99.90;;;;;;5015187;28;20041;-80
2022/01/10 06:35:22;;;;;;;46.40;26.67;;;1.20;99.90;;;;;;4998663;28;20400;-80
2022/01/10 06:37:49;;;;;;;46.63;26.38;;;0.70;99.90;;;;;;4982922;28;20478;-80
2022/01/10 06:40:15;;;;;;;41.35;25.70;;;0.70;99.90;;;;;;4997729;28;20111;-80
2022/01/10 06:42:40;;;;;;;45.83;27.80;;;0.70;99.90;;;;;;4998588;28;20369;-80
2022/01/10 06:45:07;;;;;;;45.88;26.92;;;0.70;99.90;;;;;;4997521;28;20493;-80
2022/01/10 06:47:33;;;;;;;44.42;26.52;;;0.70;99.90;;;;;;4999151;28;20048;-81
2022/01/10 06:49:58;;;;;;;57.90;31.08;;;0.70;99.90;;;;;;4999697;28;20045;-81
2022/01/10 06:52:24;;;;;;;44.35;24.63;;;0.70;99.90;;;;;;5013026;28;20045;-81
2022/01/10 06:54:50;;;;;;;46.53;26.40;;;0.80;99.90;;;;;;4996994;28;20392;-81
2022/01/10 06:57:16;;;;;;;37.10;24.80;;;0.60;99.90;;;;;;4998708;28;20043;-81
2022/01/10 06:59:42;;;;;;;40.63;25.63;;;0.60;99.90;;;;;;4975229;28;20517;-82
2022/01/10 07:02:08;;;;;;;48.00;27.02;;;0.70;99.90;;;;;;5003904;28;20071;-81
2022/01/10 07:04:34;;;;;;;39.28;25.00;;;0.70;99.90;;;;;;4996640;28;20409;-80
2022/01/10 07:07:00;;;;;;;46.45;25.77;;;0.60;99.90;;;;;;4993814;28;20038;-80
2022/01/10 07:09:25;;;;;;;47.58;28.63;;;0.70;99.90;;;;;;5010263;28;20156;-81
2022/01/10 07:11:51;;;;;;;48.60;27.77;;;1.30;99.90;;;;;;4985991;28;20046;-81
2022/01/10 07:14:17;;;;;;;38.78;25.90;;;0.50;99.90;;;;;;4982735;28;20037;-81
2022/01/10 07:16:44;;;;;;;46.65;27.42;;;0.60;99.90;;;;;;4993379;28;20038;-81
2022/01/10 07:19:09;;;;;;;50.42;31.67;;;0.60;99.90;;;;;;4993847;28;20040;-81
2022/01/10 07:21:39;;;;;;;67.55;33.38;;;0.60;99.90;;;;;;4990012;28;20042;-81
2022/01/10 07:24:08;;;;;;;54.83;32.10;;;1.40;99.90;;;;;;5002461;28;20520;-81
2022/01/10 07:26:34;;;;;;;45.10;28.38;;;0.70;99.90;;;;;;4967220;28;20080;-80
2022/01/10 07:29:01;;;;;;;40.38;26.77;;;0.70;99.90;;;;;;5000534;28;20049;-80
2022/01/10 07:31:27;;;;;;;46.35;29.88;;;0.50;99.90;;;;;;5011098;28;20408;-81
2022/01/10 07:33:54;;;;;;;41.53;26.23;;;0.50;99.90;;;;;;4996629;28;20045;-81
2022/01/10 07:36:20;;;;;;;40.40;26.13;;;0.60;99.90;;;;;;4993948;28;20046;-81
2022/01/10 07:38:46;;;;;;;42.97;28.63;;;0.60;99.90;;;;;;5009581;28;20050;-81
2022/01/10 07:41:12;;;;;;;41.45;25.08;;;0.60;99.90;;;;;;4982166;28;20046;-80
2022/01/10 07:43:37;;;;;;;43.90;27.20;;;0.80;99.90;;;;;;4997955;28;20037;-80
2022/01/10 07:46:04;;;;;;;39.28;26.02;;;0.80;99.90;;;;;;4997661;28;20512;-81
2022/01/10 07:48:32;;;;;;;37.05;26.10;;;0.60;99.90;;;;;;4994748;28;20142;-81
2022/01/10 07:50:58;;;;;;;37.83;25.77;;;0.50;99.90;;;;;;5007706;28;20042;-81
2022/01/10 07:53:24;;;;;;;40.90;26.88;;;0.50;99.90;;;;;;4985978;28;20500;-81
2022/01/10 07:55:50;;;;;;;43.08;28.95;;;0.60;99.90;;;;;;4977722;28;20073;-81
2022/01/10 07:58:16;;;;;;;42.42;26.73;;;0.60;99.90;;;;;;5012238;28;20033;-81
2022/01/10 08:00:43;;;;;;;36.88;25.52;;;0.60;99.90;;;;;;5001271;28;20034;-82
2022/01/10 08:03:08;;;;;;;46.83;30.75;;;0.60;99.90;;;;;;4975230;28;20121;-82
2022/01/10 08:05:34;;;;;;;42.50;26.67;;;0.60;99.90;;;;;;4973011;28;20124;-82
2022/01/10 08:08:00;;;;;;;33.78;24.40;;;0.60;99.90;;;;;;4990958;28;20034;-81
2022/01/10 08:10:26;;;;;;;63.55;35.15;;;1.70;99.90;;;;;;4975235;28;20038;-81
2022/01/10 08:12:52;;;;;;;36.70;25.67;;;0.50;99.90;;;;;;4980881;28;20420;-82
2022/01/10 08:15:19;;;;;;;36.90;27.08;;;0.70;99.90;;;;;;4997312;28;20468;-82
2022/01/10 08:17:45;;;;;;;36.15;25.02;;;0.60;99.90;;;;;;4971984;28;20129;-81
2022/01/10 08:20:12;;;;;;;43.50;30.83;;;0.60;99.90;;;;;;4965294;28;20100;-81
2022/01/10 08:22:37;;;;;;;36.85;25.00;;;0.60;99.90;;;;;;4985662;28;20037;-81
2022/01/10 08:25:04;;;;;;;39.33;27.48;;;0.60;99.90;;;;;;4977131;28;20033;-82
2022/01/10 08:27:30;;;;;;;42.28;28.60;;;0.60;99.90;;;;;;5012807;28;20033;-81
2022/01/10 08:29:55;;;;;;;50.55;34.65;;;0.60;99.90;;;;;;4992044;28;20048;-81
2022/01/10 08:32:21;;;;;;;43.85;30.85;;;0.70;99.90;;;;;;4977805;28;20049;-81
2022/01/10 08:34:47;;;;;;;56.50;35.70;;;0.70;99.90;;;;;;5016475;28;20049;-81
2022/01/10 08:37:13;;;;;;;76.43;45.15;;;0.80;99.90;;;;;;4993425;28;20044;-81
2022/01/10 08:39:38;;;;;;;56.92;38.17;;;1.00;99.90;;;;;;4998101;28;20128;-81
2022/01/10 08:42:05;;;;;;;81.97;37.85;;;0.80;99.90;;;;;;5003809;28;20061;-81
2022/01/10 08:44:30;;;;;;;57.05;37.55;;;1.10;99.90;;;;;;4986307;28;20136;-81
2022/01/10 08:46:56;;;;;;;62.22;39.42;;;1.20;99.90;;;;;;4999669;28;20120;-81
2022/01/10 08:49:22;;;;;;;205.32;61.60;;;0.90;99.90;;;;;;4984528;28;20459;-81
2022/01/10 08:51:54;;;;;;;206.23;61.75;;;0.90;99.90;;;;;;4974230;28;20046;-81
2022/01/10 08:54:22;;;;;;;556.03;92.27;;;1.20;99.90;;;;;;4999717;28;20094;-81
2022/01/10 08:56:49;;;;;;;329.42;77.78;;;1.30;99.90;;;;;;4999563;28;20501;-81
2022/01/10 08:59:14;;;;;;;185.32;62.83;;;1.80;99.90;;;;;;4999405;28;20037;-81
2022/01/10 09:01:42;;;;;;;141.60;64.47;;;1.50;99.90;;;;;;4983548;28;20064;-81
2022/01/10 09:04:15;;;;;;;373.27;88.70;;;1.50;99.90;;;;;;4993396;28;20508;-81
2022/01/10 09:06:46;;;;;;;814.92;127.57;;;1.80;99.90;;;;;;4989915;28;20045;-81
2022/01/10 09:09:13;;;;;;;771.30;135.02;;;2.00;99.90;;;;;;5009042;28;20037;-82
2022/01/10 09:11:39;;;;;;;1197.05;170.23;;;2.40;99.90;;;;;;4993491;28;20073;-81
2022/01/10 09:14:06;;;;;;;271.90;100.45;;;2.60;99.90;;;;;;5000147;28;20455;-81
2022/01/10 09:16:32;;;;;;;150.95;79.95;;;2.70;99.90;;;;;;5000070;28;20045;-81
2022/01/10 09:18:58;;;;;;;87.03;56.38;;;2.70;99.90;;;;;;4971504;28;20194;-81
2022/01/10 09:21:24;;;;;;;120.55;63.47;;;2.70;99.90;;;;;;5003733;28;20038;-82
2022/01/10 09:23:50;;;;;;;65.05;44.45;;;3.20;99.90;;;;;;4978202;28;20502;-81
2022/01/10 09:26:15;;;;;;;232.85;83.35;;;2.90;99.90;;;;;;5010431;28;20056;-82
2022/01/10 09:28:43;;;;;;;86.85;53.53;;;2.90;99.90;;;;;;4994036;28;20049;-82
2022/01/10 09:31:10;;;;;;;75.85;47.72;;;3.10;99.90;;;;;;4993102;28;20068;-82
2022/01/10 09:33:35;;;;;;;80.25;53.30;;;3.20;99.90;;;;;;4999749;28;20053;-82
2022/01/10 09:36:02;;;;;;;65.60;43.50;;;3.20;99.90;;;;;;4993871;28;20041;-82
2022/01/10 09:38:27;;;;;;;63.15;40.33;;;3.30;99.90;;;;;;4992517;28;20073;-82
2022/01/10 09:40:54;;;;;;;69.30;47.35;;;3.30;99.90;;;;;;4990778;28;20080;-82
2022/01/10 09:43:20;;;;;;;46.40;32.92;;;3.40;99.90;;;;;;4977515;28;20104;-82
2022/01/10 09:45:46;;;;;;;60.13;40.25;;;3.60;99.90;;;;;;4981242;28;20054;-82
2022/01/10 09:48:12;;;;;;;55.00;39.35;;;3.70;99.90;;;;;;4993648;28;20050;-82
2022/01/10 09:50:38;;;;;;;45.80;32.80;;;4.00;99.90;;;;;;4971467;28;20048;-82
2022/01/10 09:53:05;;;;;;;46.33;33.38;;;3.80;99.90;;;;;;4988810;28;20053;-82
2022/01/10 09:55:33;;;;;;;43.95;30.00;;;3.80;99.90;;;;;;4992307;28;20052;-81
2022/01/10 09:58:00;;;;;;;40.42;28.50;;;3.80;99.90;;;;;;4988503;28;20041;-83
2022/01/10 10:00:26;;;;;;;48.35;30.48;;;3.80;99.90;;;;;;4979720;28;20141;-83
2022/01/10 10:02:52;;;;;;;43.30;28.85;;;3.60;99.90;;;;;;4988622;28;20069;-82
2022/01/10 10:05:19;;;;;;;43.78;28.25;;;3.60;99.90;;;;;;4982128;28;20576;-82
2022/01/10 10:07:45;;;;;;;43.60;29.80;;;3.60;99.90;;;;;;4995503;28;20374;-82
2022/01/10 10:10:12;;;;;;;42.28;29.02;;;3.70;99.90;;;;;;4996684;28;20044;-81
2022/01/10 10:12:43;;;;;;;47.42;31.90;;;3.80;99.90;;;;;;4991187;28;20139;-82
2022/01/10 10:15:11;;;;;;;47.03;31.52;;;3.80;99.90;;;;;;4994181;28;20029;-82
2022/01/10 10:17:39;;;;;;;46.47;32.90;;;3.90;99.90;;;;;;4996797;28;20044;-82
2022/01/10 10:20:15;;;;;;;39.25;29.95;;;3.90;99.90;;;;;;4995246;28;20080;-82
2022/01/10 10:22:42;;;;;;;47.15;29.25;;;4.00;99.90;;;;;;4992040;28;20448;-83
2022/01/10 10:25:10;;;;;;;41.28;28.27;;;4.00;99.90;;;;;;4990405;28;20096;-82
2022/01/10 10:27:38;;;;;;;42.22;29.40;;;4.00;99.90;;;;;;4990391;28;20400;-82
2022/01/10 10:30:08;;;;;;;40.15;26.90;;;4.00;99.90;;;;;;4955645;28;20066;-82
2022/01/10 10:32:34;;;;;;;39.70;28.77;;;4.10;99.90;;;;;;5031247;28;20141;-82
2022/01/10 10:35:00;;;;;;;38.92;26.17;;;4.20;99.90;;;;;;5012478;28;20127;-82
2022/01/10 10:37:27;;;;;;;38.70;26.73;;;4.30;99.90;;;;;;4985638;28;20111;-82
2022/01/10 10:39:56;;;;;;;43.90;29.33;;;4.30;99.90;;;;;;5014099;28;20098;-82
2022/01/10 10:42:28;;;;;;;36.83;26.52;;;4.30;99.90;;;;;;5016325;28;20045;-83
2022/01/10 10:44:56;;;;;;;44.78;29.63;;;4.30;99.90;;;;;;5011692;28;20037;-82
2022/01/10 10:47:26;;;;;;;47.22;29.13;;;4.40;99.90;;;;;;5014275;28;20049;-82
2022/01/10 10:49:59;;;;;;;42.38;29.63;;;4.40;99.90;;;;;;5009783;28;20042;-82
2022/01/10 10:52:32;;;;;;;41.90;30.33;;;4.30;99.90;;;;;;5013474;28;20041;-82
2022/01/10 10:55:08;;;;;;;37.53;26.80;;;4.40;99.90;;;;;;5023781;28;20162;-82
2022/01/10 10:57:36;;;;;;;42.90;29.65;;;4.40;99.90;;;;;;4999107;28;20072;-82
2022/01/10 11:00:05;;;;;;;42.55;27.55;;;4.40;99.90;;;;;;5012801;28;20053;-82
2022/01/10 11:02:31;;;;;;;43.50;27.95;;;4.40;99.90;;;;;;5011135;28;20041;-82
2022/01/10 11:05:01;;;;;;;42.53;29.23;;;4.40;99.90;;;;;;5003552;28;20393;-82
2022/01/10 11:07:31;;;;;;;42.22;28.10;;;4.40;99.90;;;;;;4996278;28;20082;-82
2022/01/10 11:09:57;;;;;;;47.08;29.60;;;5.30;99.90;;;;;;5002602;28;20108;-82
2022/01/10 11:12:24;;;;;;;48.47;29.08;;;4.40;99.90;;;;;;5029815;28;20056;-82
2022/01/10 11:14:52;;;;;;;39.35;26.50;;;4.30;99.90;;;;;;4999498;28;20053;-83
2022/01/10 11:17:22;;;;;;;35.63;25.27;;;4.30;99.90;;;;;;5031260;28;20068;-83
2022/01/10 11:20:08;;;;;;;44.60;27.52;;;4.30;99.90;;;;;;5012954;28;20045;-82
2022/01/10 11:22:36;;;;;;;41.15;26.52;;;4.30;99.90;;;;;;5012437;28;20037;-82
2022/01/10 11:25:03;;;;;;;40.83;26.48;;;4.40;99.90;;;;;;5028991;28;20044;-82
2022/01/10 11:27:30;;;;;;;41.53;28.08;;;4.40;99.90;;;;;;4997851;28;20084;-82
2022/01/10 11:29:57;;;;;;;45.17;27.63;;;4.40;99.90;;;;;;5005309;28;20033;-82
2022/01/10 11:32:56;;;;;;;38.55;25.83;;;4.40;99.90;;;;;;5028569;28;20044;-82
2022/01/10 11:35:22;;;;;;;39.88;25.08;;;4.40;99.90;;;;;;5014758;28;20136;-82
2022/01/10 11:37:47;;;;;;;41.58;26.38;;;4.40;99.90;;;;;;5026534;28;20041;-82
2022/01/10 11:40:15;;;;;;;43.75;29.63;;;4.40;99.90;;;;;;5036140;28;20060;-82
2022/01/10 11:42:46;;;;;;;42.97;29.02;;;4.50;99.90;;;;;;5021237;28;20150;-81
2022/01/10 11:45:13;;;;;;;42.65;28.42;;;4.50;99.90;;;;;;4993424;28;20045;-82
2022/01/10 11:48:15;;;;;;;44.35;28.08;;;4.50;99.90;;;;;;5010637;28;20072;-82
2022/01/10 11:50:43;;;;;;;41.28;27.60;;;4.50;99.90;;;;;;4943221;28;20134;-82
2022/01/10 11:53:09;;;;;;;40.97;26.65;;;4.40;99.90;;;;;;5006838;28;20132;-82
2022/01/10 11:55:55;;;;;;;45.75;29.35;;;4.50;99.90;;;;;;5004711;28;20468;-82
2022/01/10 11:58:24;;;;;;;47.47;29.70;;;4.50;99.90;;;;;;5037406;28;20041;-83
2022/01/10 12:00:52;;;;;;;44.60;28.58;;;4.50;99.90;;;;;;4989069;28;20037;-82
2022/01/10 12:03:21;;;;;;;46.17;29.98;;;4.60;99.90;;;;;;5006298;28;20509;-81
2022/01/10 12:05:48;;;;;;;47.78;31.45;;;4.50;99.90;;;;;;5008169;28;20072;-81
2022/01/10 12:08:14;;;;;;;43.38;29.20;;;4.60;99.90;;;;;;5029874;28;20045;-81
2022/01/10 12:10:40;;;;;;;42.22;29.58;;;4.60;99.90;;;;;;5007428;28;20063;-81
2022/01/10 12:13:11;;;;;;;40.08;29.25;;;4.60;99.90;;;;;;5011554;28;20050;-81
2022/01/10 12:15:38;;;;;;;43.10;28.67;;;4.60;99.90;;;;;;5007998;28;20501;-81
2022/01/10 12:18:06;;;;;;;43.05;27.02;;;4.60;99.90;;;;;;4990838;28;20485;-81
2022/01/10 12:20:32;;;;;;;40.17;26.17;;;4.50;99.90;;;;;;4995024;28;20429;-82
2022/01/10 12:23:00;;;;;;;43.63;25.83;;;4.60;99.90;;;;;;5011418;28;20041;-82
2022/01/10 12:25:26;;;;;;;43.60;26.70;;;4.60;99.90;;;;;;5029876;28;20508;-81
2022/01/10 12:27:54;;;;;;;39.03;27.02;;;4.60;99.90;;;;;;5016551;28;20050;-81
2022/01/10 12:30:21;;;;;;;40.22;28.00;;;4.60;99.90;;;;;;5008541;28;20060;-81
2022/01/10 12:32:48;;;;;;;39.05;28.48;;;4.60;99.90;;;;;;5023095;28;20501;-82
2022/01/10 12:35:16;;;;;;;43.00;29.30;;;4.60;99.90;;;;;;5007602;28;20045;-82
2022/01/10 12:37:41;;;;;;;40.97;28.90;;;4.50;99.90;;;;;;5028216;28;20124;-82
2022/01/10 12:40:10;;;;;;;41.53;30.52;;;4.50;99.90;;;;;;4989990;28;20192;-82
2022/01/10 12:42:36;;;;;;;46.08;32.33;;;4.60;99.90;;;;;;5001226;28;20041;-82
2022/01/10 12:45:03;;;;;;;47.83;33.65;;;4.60;99.90;;;;;;5020094;28;20438;-81